Time;durP1;ratioP1;P1;durP2;ratioP2;P2;SDS_P1;SDS_P2;PMS_P1;PMS_P2;Temp;Humidity;BMP_temperature;BMP_pressure;BME280_temperature;BME280_humidity;BME280_pressure;Samples;Min_cycle;Max_cycle;Signal;HPM_P1;HPM_P2
2021/04/23 00:01:19;;;;;;;32.90;5.28;;;;;;;;;;5072365;28;20051;-78
2021/04/23 00:03:49;;;;;;;20.42;4.90;;;;;;;;;;5054323;28;20048;-78
2021/04/23 00:06:19;;;;;;;19.42;4.47;;;;;;;;;;5054432;28;20098;-79
2021/04/23 00:08:48;;;;;;;32.65;5.63;;;;;;;;;;5054033;28;20126;-78
2021/04/23 00:11:16;;;;;;;30.70;6.00;;;;;;;;;;5071801;28;20051;-78
2021/04/23 00:13:43;;;;;;;18.58;4.57;;;;;;;;;;5053888;28;20082;-78
2021/04/23 00:16:11;;;;;;;27.08;7.10;;;;;;;;;;5054049;28;20076;-78
2021/04/23 00:18:38;;;;;;;26.15;4.95;;;;;;;;;;5054069;28;20052;-78
2021/04/23 00:21:06;;;;;;;25.65;4.18;;;;;;;;;;5054700;28;20131;-79
2021/04/23 00:23:33;;;;;;;14.90;4.60;;;;;;;;;;5053771;28;20117;-78
2021/04/23 00:26:00;;;;;;;29.35;5.00;;;;;;;;;;5063021;28;20136;-79
2021/04/23 00:28:28;;;;;;;21.13;4.28;;;;;;;;;;5053436;28;20080;-79
2021/04/23 00:30:55;;;;;;;17.98;4.80;;;;;;;;;;5071813;28;20497;-79
2021/04/23 00:33:24;;;;;;;34.60;5.32;;;;;;;;;;5071546;28;20040;-78
2021/04/23 00:35:51;;;;;;;20.48;4.63;;;;;;;;;;5054163;28;20076;-78
2021/04/23 00:38:22;;;;;;;33.35;6.03;;;;;;;;;;5071492;28;20094;-79
2021/04/23 00:40:51;;;;;;;18.92;5.28;;;;;;;;;;5054314;28;20080;-79
2021/04/23 00:43:19;;;;;;;28.58;5.90;;;;;;;;;;5053306;28;20544;-78
2021/04/23 00:45:46;;;;;;;31.27;6.75;;;;;;;;;;5070684;28;20080;-78
2021/04/23 00:48:13;;;;;;;26.90;5.72;;;;;;;;;;5053789;28;20078;-79
2021/04/23 00:50:49;;;;;;;22.17;4.80;;;;;;;;;;5070733;28;20048;-79
2021/04/23 00:53:25;;;;;;;18.58;5.13;;;;;;;;;;5053219;28;20041;-79
2021/04/23 00:55:54;;;;;;;28.35;4.88;;;;;;;;;;5069944;28;20421;-78
2021/04/23 00:58:22;;;;;;;23.40;5.38;;;;;;;;;;5053525;28;20070;-79
2021/04/23 01:00:51;;;;;;;20.50;4.68;;;;;;;;;;5071050;28;20139;-79
2021/04/23 01:03:19;;;;;;;19.60;5.28;;;;;;;;;;5070549;28;20048;-79
2021/04/23 01:05:47;;;;;;;24.35;5.25;;;;;;;;;;5054200;28;20048;-79
2021/04/23 01:08:14;;;;;;;32.47;5.82;;;;;;;;;;5053142;28;20464;-79
2021/04/23 01:10:41;;;;;;;25.52;6.20;;;;;;;;;;5033238;28;20080;-79
2021/04/23 01:13:08;;;;;;;28.08;5.07;;;;;;;;;;5049878;28;20047;-79
2021/04/23 01:15:35;;;;;;;22.73;5.30;;;;;;;;;;5066983;28;20072;-79
2021/04/23 01:18:01;;;;;;;21.88;5.30;;;;;;;;;;5052516;28;20048;-79
2021/04/23 01:20:28;;;;;;;31.85;5.32;;;;;;;;;;5069082;28;20071;-79
2021/04/23 01:22:55;;;;;;;20.75;5.47;;;;;;;;;;5052958;28;20052;-79
2021/04/23 01:25:23;;;;;;;19.55;4.55;;;;;;;;;;5052309;28;20130;-79
2021/04/23 01:27:49;;;;;;;18.98;4.35;;;;;;;;;;5052563;28;20874;-79
2021/04/23 01:30:18;;;;;;;26.13;7.03;;;;;;;;;;5052602;28;20151;-79
2021/04/23 01:32:45;;;;;;;37.28;5.57;;;;;;;;;;5052668;28;20119;-79
2021/04/23 01:35:14;;;;;;;31.90;5.60;;;;;;;;;;5052938;28;20047;-79
2021/04/23 01:37:41;;;;;;;17.08;6.00;;;;;;;;;;5070517;28;20123;-79
2021/04/23 01:40:09;;;;;;;20.45;5.05;;;;;;;;;;5060451;28;20111;-79
2021/04/23 01:42:35;;;;;;;31.23;6.10;;;;;;;;;;5050672;28;20087;-79
2021/04/23 01:45:02;;;;;;;31.80;7.03;;;;;;;;;;5064553;28;20127;-79
2021/04/23 01:47:29;;;;;;;27.45;4.70;;;;;;;;;;5052574;28;20132;-79
2021/04/23 01:49:56;;;;;;;26.08;6.82;;;;;;;;;;5068542;28;20084;-79
2021/04/23 01:52:23;;;;;;;20.92;4.88;;;;;;;;;;5051349;28;20459;-78
2021/04/23 01:54:50;;;;;;;26.58;4.60;;;;;;;;;;5068939;28;20561;-78
2021/04/23 01:57:17;;;;;;;19.05;4.15;;;;;;;;;;5051653;28;20044;-79
2021/04/23 01:59:44;;;;;;;20.15;5.00;;;;;;;;;;5069400;28;20048;-78
2021/04/23 02:02:12;;;;;;;17.23;4.53;;;;;;;;;;5051076;28;20139;-79
2021/04/23 02:04:38;;;;;;;21.23;4.22;;;;;;;;;;5069763;28;20110;-78
2021/04/23 02:07:06;;;;;;;31.10;5.07;;;;;;;;;;5051499;28;20048;-79
2021/04/23 02:09:33;;;;;;;21.88;5.45;;;;;;;;;;5052045;28;20052;-79
2021/04/23 02:12:00;;;;;;;27.85;5.57;;;;;;;;;;5052209;28;20469;-79
2021/04/23 02:14:27;;;;;;;27.98;6.00;;;;;;;;;;5070533;28;20126;-79
2021/04/23 02:16:54;;;;;;;33.20;5.05;;;;;;;;;;5069526;28;20044;-79
2021/04/23 02:19:22;;;;;;;20.27;4.20;;;;;;;;;;5052550;28;20044;-79
2021/04/23 02:21:49;;;;;;;24.23;4.75;;;;;;;;;;5070593;28;20160;-79
2021/04/23 02:27:38;;;;;;;22.73;5.75;;;;;;;;;;5057683;22;20102;-79
2021/04/23 02:30:13;;;;;;;29.27;4.95;;;;;;;;;;5049690;28;20612;-79
2021/04/23 02:32:40;;;;;;;25.25;4.78;;;;;;;;;;5031515;28;20080;-79
2021/04/23 02:35:09;;;;;;;29.95;6.47;;;;;;;;;;5031683;28;20053;-79
2021/04/23 02:37:36;;;;;;;27.60;4.28;;;;;;;;;;5032013;28;20077;-79
2021/04/23 02:40:04;;;;;;;21.13;4.15;;;;;;;;;;5038639;28;20136;-79
2021/04/23 02:42:30;;;;;;;23.67;4.43;;;;;;;;;;5054546;28;20503;-79
2021/04/23 02:44:57;;;;;;;27.23;4.95;;;;;;;;;;5049357;28;20124;-78
2021/04/23 02:47:24;;;;;;;28.25;5.07;;;;;;;;;;5047971;28;20048;-79
2021/04/23 02:49:51;;;;;;;26.83;5.32;;;;;;;;;;5030093;28;20055;-79
2021/04/23 02:52:18;;;;;;;27.50;4.93;;;;;;;;;;5048267;28;20126;-79
2021/04/23 02:54:46;;;;;;;19.38;4.30;;;;;;;;;;5040343;28;20080;-79
2021/04/23 02:57:20;;;;;;;17.10;4.53;;;;;;;;;;5049013;28;20049;-79
2021/04/23 02:59:46;;;;;;;24.13;4.38;;;;;;;;;;5031560;28;20060;-79
2021/04/23 03:02:13;;;;;;;14.85;4.00;;;;;;;;;;5031738;28;20053;-78
2021/04/23 03:04:40;;;;;;;18.55;4.22;;;;;;;;;;5030893;28;20429;-79
2021/04/23 03:07:07;;;;;;;21.42;4.45;;;;;;;;;;5048176;28;20100;-78
2021/04/23 03:09:33;;;;;;;26.33;5.50;;;;;;;;;;5031559;28;20057;-80
2021/04/23 03:12:00;;;;;;;21.30;3.83;;;;;;;;;;5032430;28;20087;-81
2021/04/23 03:14:28;;;;;;;29.35;6.03;;;;;;;;;;5047296;28;20421;-80
2021/04/23 03:16:55;;;;;;;25.15;4.85;;;;;;;;;;5042500;28;20900;-81
2021/04/23 03:19:21;;;;;;;23.60;4.35;;;;;;;;;;5023330;28;20059;-81
2021/04/23 03:21:49;;;;;;;26.45;4.47;;;;;;;;;;5050307;28;20084;-81
2021/04/23 03:24:16;;;;;;;26.90;4.60;;;;;;;;;;5053590;28;20102;-80
2021/04/23 03:26:44;;;;;;;25.65;4.32;;;;;;;;;;5035895;28;20076;-81
2021/04/23 03:29:11;;;;;;;17.20;4.30;;;;;;;;;;5035799;28;20505;-81
2021/04/23 03:31:38;;;;;;;26.30;4.45;;;;;;;;;;5054086;28;20073;-80
2021/04/23 03:34:06;;;;;;;23.50;5.63;;;;;;;;;;5053335;28;20324;-80
2021/04/23 03:36:34;;;;;;;20.02;4.38;;;;;;;;;;5042411;28;20079;-80
2021/04/23 03:39:01;;;;;;;20.58;3.83;;;;;;;;;;5053667;28;20045;-81
2021/04/23 03:41:30;;;;;;;29.73;4.25;;;;;;;;;;5036032;28;20118;-80
2021/04/23 03:43:57;;;;;;;30.75;5.10;;;;;;;;;;5036175;28;20099;-80
2021/04/23 03:46:24;;;;;;;26.90;4.38;;;;;;;;;;5050019;28;20052;-80
2021/04/23 03:48:52;;;;;;;22.27;4.85;;;;;;;;;;5053256;28;20053;-80
2021/04/23 03:51:19;;;;;;;47.25;5.53;;;;;;;;;;5064677;28;20137;-80
2021/04/23 03:53:48;;;;;;;23.50;4.15;;;;;;;;;;5072418;28;20135;-80
2021/04/23 03:56:15;;;;;;;23.13;3.60;;;;;;;;;;5050691;28;20124;-80
2021/04/23 03:58:43;;;;;;;19.60;3.95;;;;;;;;;;5048928;28;20084;-81
2021/04/23 04:01:12;;;;;;;23.23;4.95;;;;;;;;;;5030757;28;20504;-79
2021/04/23 04:03:39;;;;;;;15.02;3.85;;;;;;;;;;5051999;28;20107;-79
2021/04/23 04:06:06;;;;;;;20.15;5.20;;;;;;;;;;5051521;28;20110;-80
2021/04/23 04:08:33;;;;;;;20.10;4.25;;;;;;;;;;5052217;28;20132;-79
2021/04/23 04:11:01;;;;;;;22.20;4.28;;;;;;;;;;5052389;28;20120;-79
2021/04/23 04:13:28;;;;;;;18.10;3.95;;;;;;;;;;5055308;28;20077;-79
2021/04/23 04:15:56;;;;;;;27.23;4.88;;;;;;;;;;5054533;28;20128;-79
2021/04/23 04:18:23;;;;;;;24.55;5.00;;;;;;;;;;5034524;28;20055;-79
2021/04/23 04:20:51;;;;;;;22.55;3.85;;;;;;;;;;5049398;28;21516;-79
2021/04/23 04:23:20;;;;;;;30.13;5.38;;;;;;;;;;5019191;28;20542;-79
2021/04/23 04:25:52;;;;;;;16.95;3.72;;;;;;;;;;5032357;28;20140;-79
2021/04/23 04:28:20;;;;;;;23.33;4.00;;;;;;;;;;5050195;28;20638;-79
2021/04/23 04:30:48;;;;;;;27.88;4.57;;;;;;;;;;5048625;28;20077;-79
2021/04/23 04:33:15;;;;;;;26.20;4.78;;;;;;;;;;5030543;28;20586;-79
2021/04/23 04:35:42;;;;;;;23.00;4.43;;;;;;;;;;5048566;28;20068;-79
2021/04/23 04:38:11;;;;;;;30.85;5.30;;;;;;;;;;5033824;28;20053;-79
2021/04/23 04:40:40;;;;;;;21.33;4.20;;;;;;;;;;5051697;28;20075;-79
2021/04/23 04:43:07;;;;;;;19.65;4.00;;;;;;;;;;5052651;28;20421;-80
2021/04/23 04:45:35;;;;;;;33.75;4.28;;;;;;;;;;5036257;28;20077;-79
2021/04/23 04:48:02;;;;;;;24.60;4.63;;;;;;;;;;5033551;28;20057;-79
2021/04/23 04:50:30;;;;;;;26.42;4.53;;;;;;;;;;5034482;28;20084;-79
2021/04/23 04:52:58;;;;;;;20.88;5.18;;;;;;;;;;5034166;28;20144;-81
2021/04/23 04:55:29;;;;;;;25.38;4.65;;;;;;;;;;5050682;28;20543;-82
2021/04/23 04:57:56;;;;;;;20.52;4.50;;;;;;;;;;5047508;28;20049;-82
2021/04/23 05:00:23;;;;;;;30.38;4.90;;;;;;;;;;5033046;28;20155;-78
2021/04/23 05:02:50;;;;;;;38.30;5.25;;;;;;;;;;5041813;28;20080;-79
2021/04/23 05:05:17;;;;;;;29.63;6.22;;;;;;;;;;5052347;28;20040;-88
2021/04/23 05:07:44;;;;;;;19.73;5.50;;;;;;;;;;5033770;28;20080;-86
2021/04/23 05:10:11;;;;;;;32.88;5.57;;;;;;;;;;5034439;28;20037;-85
2021/04/23 05:12:38;;;;;;;47.10;4.93;;;;;;;;;;5035340;28;20049;-85
2021/04/23 05:15:06;;;;;;;33.42;4.28;;;;;;;;;;5034242;28;20825;-85
2021/04/23 05:17:32;;;;;;;18.30;4.63;;;;;;;;;;5052995;28;20067;-84
2021/04/23 05:19:59;;;;;;;27.45;4.97;;;;;;;;;;5035009;28;20131;-83
2021/04/23 05:22:26;;;;;;;27.75;4.63;;;;;;;;;;5051147;28;20053;-83
2021/04/23 05:24:53;;;;;;;26.25;4.57;;;;;;;;;;5033697;28;20068;-81
2021/04/23 05:27:19;;;;;;;33.33;5.20;;;;;;;;;;5051503;28;20081;-81
2021/04/23 05:29:46;;;;;;;27.95;5.03;;;;;;;;;;5033147;28;20048;-79
2021/04/23 05:32:13;;;;;;;28.92;5.40;;;;;;;;;;5031508;28;20092;-79
2021/04/23 05:34:39;;;;;;;17.48;4.50;;;;;;;;;;5048749;28;20041;-79
2021/04/23 05:37:09;;;;;;;20.38;4.95;;;;;;;;;;5049353;28;20124;-78
2021/04/23 05:39:38;;;;;;;30.13;5.50;;;;;;;;;;5033649;28;20059;-84
2021/04/23 05:42:05;;;;;;;30.33;4.43;;;;;;;;;;5052521;28;20128;-88
2021/04/23 05:44:31;;;;;;;32.90;6.22;;;;;;;;;;5034522;28;20056;-84
2021/04/23 05:46:58;;;;;;;29.75;5.35;;;;;;;;;;5051690;28;20107;-79
2021/04/23 05:49:25;;;;;;;31.58;5.50;;;;;;;;;;5048934;28;20152;-77
2021/04/23 05:51:51;;;;;;;35.10;5.53;;;;;;;;;;5057863;28;20079;-78
2021/04/23 05:54:18;;;;;;;18.70;3.78;;;;;;;;;;5033794;28;20045;-78
2021/04/23 05:56:45;;;;;;;23.90;4.22;;;;;;;;;;5048102;28;20531;-78
2021/04/23 05:59:12;;;;;;;28.35;7.00;;;;;;;;;;5047850;28;20571;-78
2021/04/23 06:01:39;;;;;;;29.13;4.47;;;;;;;;;;5050226;28;20073;-82
2021/04/23 06:04:06;;;;;;;23.08;4.22;;;;;;;;;;5044950;28;20072;-82
2021/04/23 06:06:33;;;;;;;21.65;4.90;;;;;;;;;;5027194;28;20084;-81
2021/04/23 06:09:01;;;;;;;30.60;4.30;;;;;;;;;;5019900;28;20049;-82
2021/04/23 06:11:28;;;;;;;30.52;6.60;;;;;;;;;;5050424;28;20052;-81
2021/04/23 06:14:01;;;;;;;33.95;6.07;;;;;;;;;;5041033;28;20045;-80
2021/04/23 06:16:28;;;;;;;39.83;4.80;;;;;;;;;;5044226;28;20073;-81
2021/04/23 06:18:55;;;;;;;29.48;6.25;;;;;;;;;;5051752;28;20466;-81
2021/04/23 06:21:21;;;;;;;26.58;4.43;;;;;;;;;;5058605;28;20064;-82
2021/04/23 06:23:48;;;;;;;36.72;4.20;;;;;;;;;;5033967;28;20132;-81
2021/04/23 06:26:16;;;;;;;23.90;4.03;;;;;;;;;;5032568;28;20112;-81
2021/04/23 06:28:44;;;;;;;43.28;4.57;;;;;;;;;;5032931;28;20092;-81
2021/04/23 06:31:14;;;;;;;29.95;4.20;;;;;;;;;;5033994;28;20123;-81
2021/04/23 06:33:45;;;;;;;20.20;4.50;;;;;;;;;;5033633;28;20446;-81
2021/04/23 06:36:18;;;;;;;26.15;5.28;;;;;;;;;;5033288;28;20493;-81
2021/04/23 06:39:03;;;;;;;21.88;4.32;;;;;;;;;;5032334;28;20076;-82
2021/04/23 06:41:32;;;;;;;27.27;4.88;;;;;;;;;;5023279;28;20442;-82
2021/04/23 06:44:00;;;;;;;26.92;3.58;;;;;;;;;;5035621;28;20547;-81
2021/04/23 06:46:26;;;;;;;25.10;4.25;;;;;;;;;;5050297;28;20052;-82
2021/04/23 06:48:53;;;;;;;37.05;5.43;;;;;;;;;;5033710;28;20401;-82
2021/04/23 06:51:20;;;;;;;24.80;4.60;;;;;;;;;;5042899;28;20048;-81
2021/04/23 06:53:47;;;;;;;38.47;6.00;;;;;;;;;;5047331;28;20087;-81
2021/04/23 06:56:16;;;;;;;21.75;4.72;;;;;;;;;;5028856;28;20072;-81
2021/04/23 06:58:44;;;;;;;32.85;5.45;;;;;;;;;;5054801;28;20048;-83
2021/04/23 07:01:11;;;;;;;28.65;4.47;;;;;;;;;;5055078;28;20482;-81
2021/04/23 07:03:40;;;;;;;26.70;4.43;;;;;;;;;;5037133;28;20077;-81
2021/04/23 07:06:09;;;;;;;23.45;4.80;;;;;;;;;;5036691;28;20401;-81
2021/04/23 07:08:39;;;;;;;28.35;4.95;;;;;;;;;;5037285;28;20053;-81
2021/04/23 07:11:06;;;;;;;26.63;5.22;;;;;;;;;;5054645;28;20057;-82
2021/04/23 07:13:34;;;;;;;30.63;5.50;;;;;;;;;;5054268;28;20752;-83
2021/04/23 07:16:01;;;;;;;23.00;4.43;;;;;;;;;;5052457;28;20053;-82
2021/04/23 07:18:28;;;;;;;28.02;6.70;;;;;;;;;;5053080;28;20841;-83
2021/04/23 07:20:56;;;;;;;27.77;5.68;;;;;;;;;;5037443;28;20055;-82
2021/04/23 07:23:23;;;;;;;28.10;5.93;;;;;;;;;;5030408;28;20040;-78
2021/04/23 07:25:50;;;;;;;21.80;4.57;;;;;;;;;;5034658;28;20131;-82
2021/04/23 07:28:19;;;;;;;33.22;4.47;;;;;;;;;;5041614;28;20049;-82
2021/04/23 07:30:46;;;;;;;32.03;5.70;;;;;;;;;;5035329;28;20044;-82
2021/04/23 07:33:14;;;;;;;21.27;5.10;;;;;;;;;;5033846;28;20565;-81
2021/04/23 07:35:46;;;;;;;23.00;4.45;;;;;;;;;;5054916;28;20044;-81
2021/04/23 07:38:17;;;;;;;35.90;5.47;;;;;;;;;;5052065;28;20159;-81
2021/04/23 07:40:46;;;;;;;27.92;4.78;;;;;;;;;;5034207;28;20053;-83
2021/04/23 07:43:18;;;;;;;26.13;5.30;;;;;;;;;;5032688;28;20075;-82
2021/04/23 07:46:01;;;;;;;27.10;5.30;;;;;;;;;;5035879;28;20049;-82
2021/04/23 07:48:28;;;;;;;25.80;4.90;;;;;;;;;;5034166;28;20059;-82
2021/04/23 07:50:55;;;;;;;26.45;4.85;;;;;;;;;;5036491;28;21302;-82
2021/04/23 07:53:23;;;;;;;23.00;5.10;;;;;;;;;;5033264;28;20049;-82
2021/04/23 07:55:51;;;;;;;26.05;4.55;;;;;;;;;;5054821;28;20037;-83
2021/04/23 07:58:18;;;;;;;20.98;4.78;;;;;;;;;;5034072;28;20069;-83
2021/04/23 08:00:47;;;;;;;25.58;4.63;;;;;;;;;;5054016;28;20041;-85
2021/04/23 08:03:15;;;;;;;25.30;4.55;;;;;;;;;;5038657;28;20053;-86
2021/04/23 08:05:42;;;;;;;24.85;5.22;;;;;;;;;;5052692;28;20209;-84
2021/04/23 08:08:09;;;;;;;26.52;4.68;;;;;;;;;;5049173;28;20049;-81
2021/04/23 08:10:36;;;;;;;21.65;4.28;;;;;;;;;;5048137;28;20140;-82
2021/04/23 08:13:04;;;;;;;23.75;4.00;;;;;;;;;;5030241;28;20052;-80
2021/04/23 08:15:33;;;;;;;20.30;3.75;;;;;;;;;;5037270;28;20143;-80
2021/04/23 08:18:00;;;;;;;19.75;4.60;;;;;;;;;;5031558;28;20120;-81
2021/04/23 08:20:28;;;;;;;20.67;5.22;;;;;;;;;;5048695;28;20114;-81
2021/04/23 08:22:55;;;;;;;13.05;4.43;;;;;;;;;;5050153;28;20087;-81
2021/04/23 08:25:23;;;;;;;17.42;3.90;;;;;;;;;;5050800;28;20440;-83
2021/04/23 08:27:50;;;;;;;16.27;4.32;;;;;;;;;;5033303;28;21212;-82
2021/04/23 08:30:18;;;;;;;21.30;3.92;;;;;;;;;;5032452;28;20037;-82
2021/04/23 08:32:44;;;;;;;14.77;3.83;;;;;;;;;;5029929;28;20080;-82
2021/04/23 08:35:12;;;;;;;17.25;3.67;;;;;;;;;;5048642;28;20041;-82
2021/04/23 08:37:40;;;;;;;17.98;4.45;;;;;;;;;;5032666;28;20155;-82
2021/04/23 08:40:08;;;;;;;18.83;3.55;;;;;;;;;;5048281;28;20076;-81
2021/04/23 08:42:38;;;;;;;16.48;4.00;;;;;;;;;;5035190;28;20127;-83
2021/04/23 08:45:16;;;;;;;15.98;3.58;;;;;;;;;;5031238;28;20048;-81
2021/04/23 08:47:44;;;;;;;16.02;3.20;;;;;;;;;;5030457;28;20845;-81
2021/04/23 08:50:18;;;;;;;15.80;4.32;;;;;;;;;;5030617;28;20049;-82
2021/04/23 08:52:47;;;;;;;19.80;3.85;;;;;;;;;;5046587;28;20644;-82
2021/04/23 08:55:16;;;;;;;13.85;3.55;;;;;;;;;;5032795;28;20091;-81
2021/04/23 08:58:02;;;;;;;18.17;3.47;;;;;;;;;;5052023;28;20052;-81
2021/04/23 09:00:29;;;;;;;14.45;3.53;;;;;;;;;;5030022;28;20057;-82
2021/04/23 09:02:56;;;;;;;13.88;3.58;;;;;;;;;;5052668;28;20140;-80
2021/04/23 09:05:23;;;;;;;18.25;4.15;;;;;;;;;;5045213;28;20132;-81
2021/04/23 09:08:00;;;;;;;12.30;3.20;;;;;;;;;;5042855;28;20084;-80
2021/04/23 09:10:28;;;;;;;13.65;2.90;;;;;;;;;;5027022;28;20063;-80
2021/04/23 09:13:14;;;;;;;15.85;3.47;;;;;;;;;;5050096;28;20576;-82
2021/04/23 09:15:43;;;;;;;14.35;3.38;;;;;;;;;;5049537;28;20434;-82
2021/04/23 09:18:11;;;;;;;12.38;3.03;;;;;;;;;;5040807;28;20080;-82
2021/04/23 09:20:39;;;;;;;12.60;3.38;;;;;;;;;;5045077;28;20052;-83
2021/04/23 09:23:12;;;;;;;11.85;3.00;;;;;;;;;;5062302;28;20106;-79
2021/04/23 09:25:40;;;;;;;12.25;2.70;;;;;;;;;;5029543;28;20477;-80
2021/04/23 09:28:07;;;;;;;19.90;2.95;;;;;;;;;;5048925;28;20052;-81
2021/04/23 09:30:34;;;;;;;13.90;3.05;;;;;;;;;;5040882;28;20045;-83
2021/04/23 09:33:02;;;;;;;22.30;2.97;;;;;;;;;;5051284;28;20054;-81
2021/04/23 09:35:29;;;;;;;9.48;2.55;;;;;;;;;;5068271;28;20081;-86
2021/04/23 09:38:12;;;;;;;17.00;2.90;;;;;;;;;;5054327;28;20296;-82
2021/04/23 09:40:39;;;;;;;18.88;2.80;;;;;;;;;;5025317;28;20118;-85
2021/04/23 09:43:06;;;;;;;11.13;2.78;;;;;;;;;;5023520;28;20471;-84
2021/04/23 09:45:34;;;;;;;12.50;2.70;;;;;;;;;;5048760;28;20056;-84
2021/04/23 09:48:01;;;;;;;9.55;2.88;;;;;;;;;;5042582;28;20721;-85
2021/04/23 09:50:38;;;;;;;16.63;2.95;;;;;;;;;;5048220;28;20135;-84
2021/04/23 09:53:07;;;;;;;10.10;2.80;;;;;;;;;;5044822;28;20072;-85
2021/04/23 09:55:34;;;;;;;11.75;2.25;;;;;;;;;;5041633;28;20118;-85
2021/04/23 09:58:04;;;;;;;8.95;2.13;;;;;;;;;;5033036;28;20072;-82
2021/04/23 10:00:33;;;;;;;12.65;2.50;;;;;;;;;;5037381;28;20567;-84
2021/04/23 10:03:01;;;;;;;14.30;2.75;;;;;;;;;;5031593;28;20053;-81
2021/04/23 10:05:31;;;;;;;11.40;2.70;;;;;;;;;;5039030;28;20507;-83
2021/04/23 10:07:58;;;;;;;13.27;2.50;;;;;;;;;;5038638;28;20084;-83
2021/04/23 10:10:26;;;;;;;6.65;2.17;;;;;;;;;;5023340;28;20128;-83
2021/04/23 10:12:54;;;;;;;9.10;2.53;;;;;;;;;;5018433;28;20069;-82
2021/04/23 10:15:31;;;;;;;11.52;2.03;;;;;;;;;;5017772;28;20103;-82
2021/04/23 10:18:00;;;;;;;9.38;1.83;;;;;;;;;;5032740;28;20056;-82
2021/04/23 10:23:06;;;;;;;12.50;2.22;;;;;;;;;;5027466;28;20063;-81
2021/04/23 10:25:33;;;;;;;8.00;1.98;;;;;;;;;;5031735;28;20595;-80
2021/04/23 10:28:01;;;;;;;10.68;2.05;;;;;;;;;;5030394;28;20751;-80
2021/04/23 10:30:31;;;;;;;7.25;1.77;;;;;;;;;;5032000;28;20145;-80
2021/04/23 10:33:07;;;;;;;9.32;2.45;;;;;;;;;;5034213;28;20493;-83
2021/04/23 10:35:37;;;;;;;17.05;2.67;;;;;;;;;;5033584;28;20409;-85
2021/04/23 10:38:05;;;;;;;8.43;2.17;;;;;;;;;;5033594;28;20061;-80
2021/04/23 10:40:32;;;;;;;5.38;1.70;;;;;;;;;;5034786;28;20135;-81
2021/04/23 10:43:02;;;;;;;5.28;1.92;;;;;;;;;;5031722;28;20111;-85
2021/04/23 10:45:38;;;;;;;5.45;1.48;;;;;;;;;;5035127;28;20650;-83
2021/04/23 10:48:14;;;;;;;4.65;1.50;;;;;;;;;;5034061;28;20494;-84
2021/04/23 10:50:50;;;;;;;9.63;1.67;;;;;;;;;;5032168;28;22160;-84
2021/04/23 10:53:19;;;;;;;7.18;1.55;;;;;;;;;;5031820;28;20053;-84
2021/04/23 10:55:47;;;;;;;10.10;2.03;;;;;;;;;;5013683;28;20050;-85
2021/04/23 10:58:30;;;;;;;5.38;1.98;;;;;;;;;;5014471;28;20053;-85
2021/04/23 11:00:57;;;;;;;7.22;2.50;;;;;;;;;;5014367;28;20125;-85
2021/04/23 11:03:25;;;;;;;6.10;1.50;;;;;;;;;;5013898;28;20131;-85
2021/04/23 11:06:06;;;;;;;8.02;1.83;;;;;;;;;;5022516;28;20076;-84
2021/04/23 11:08:34;;;;;;;10.48;1.83;;;;;;;;;;5033434;28;20477;-85
2021/04/23 11:11:10;;;;;;;6.07;1.83;;;;;;;;;;5033761;28;20130;-85
2021/04/23 11:13:38;;;;;;;13.30;1.98;;;;;;;;;;5033794;28;20058;-84
2021/04/23 11:16:20;;;;;;;6.20;1.48;;;;;;;;;;5034486;28;20043;-84
2021/04/23 11:18:50;;;;;;;7.00;1.40;;;;;;;;;;5033724;28;20049;-83
2021/04/23 11:21:30;;;;;;;6.40;1.60;;;;;;;;;;5034875;28;20103;-85
2021/04/23 11:24:06;;;;;;;6.88;1.60;;;;;;;;;;5032811;28;20485;-84
2021/04/23 11:26:53;;;;;;;6.15;1.83;;;;;;;;;;5033150;28;20046;-84
2021/04/23 11:29:20;;;;;;;5.00;1.10;;;;;;;;;;5034553;28;20053;-85
2021/04/23 11:32:07;;;;;;;10.63;1.90;;;;;;;;;;5034642;28;20096;-84
2021/04/23 11:34:36;;;;;;;7.05;1.50;;;;;;;;;;5032054;28;20061;-83
2021/04/23 11:37:05;;;;;;;6.28;1.23;;;;;;;;;;5033213;28;20653;-83
2021/04/23 11:39:32;;;;;;;5.20;1.50;;;;;;;;;;5034285;28;20128;-84
2021/04/23 11:42:11;;;;;;;8.90;1.45;;;;;;;;;;5034015;28;20064;-83
2021/04/23 11:44:42;;;;;;;6.53;0.93;;;;;;;;;;5032686;28;20053;-84
2021/04/23 11:47:10;;;;;;;7.28;1.67;;;;;;;;;;5029470;28;20059;-84
2021/04/23 11:49:37;;;;;;;6.82;1.35;;;;;;;;;;5032229;28;20103;-79
2021/04/23 11:52:04;;;;;;;5.97;1.13;;;;;;;;;;5033461;28;20088;-87
2021/04/23 11:54:33;;;;;;;11.82;1.52;;;;;;;;;;5024734;28;20103;-82
2021/04/23 11:59:06;;;;;;;48.33;5.43;;;;;;;;;;5079679;27;20408;-87
2021/04/23 12:01:39;;;;;;;7.78;1.25;;;;;;;;;;5060825;28;20375;-87
2021/04/23 12:04:05;;;;;;;5.22;1.30;;;;;;;;;;5053935;28;20057;-86
2021/04/23 12:06:33;;;;;;;8.98;2.00;;;;;;;;;;5060682;28;20448;-86
2021/04/23 12:09:00;;;;;;;4.00;1.40;;;;;;;;;;5069953;28;20397;-90
2021/04/23 12:11:28;;;;;;;5.20;1.60;;;;;;;;;;5064636;28;20059;-85
2021/04/23 12:13:56;;;;;;;4.60;1.30;;;;;;;;;;5047366;28;20503;-90
2021/04/23 12:16:25;;;;;;;3.72;1.00;;;;;;;;;;5047331;28;20087;-90
2021/04/23 12:18:56;;;;;;;6.55;1.10;;;;;;;;;;5048270;28;20539;-92
2021/04/23 12:21:23;;;;;;;4.20;1.40;;;;;;;;;;5045748;28;20061;-90
2021/04/23 12:23:52;;;;;;;2.75;0.77;;;;;;;;;;5049819;28;20072;-91
2021/04/23 12:26:19;;;;;;;6.35;1.05;;;;;;;;;;5050609;28;20053;-92
2021/04/23 12:28:50;;;;;;;5.50;1.30;;;;;;;;;;5049059;28;20083;-87
2021/04/23 12:31:28;;;;;;;4.20;1.08;;;;;;;;;;5047186;28;20041;-81
2021/04/23 12:34:04;;;;;;;7.25;1.27;;;;;;;;;;4993507;28;20148;-81
2021/04/23 12:36:37;;;;;;;2.78;1.20;;;;;;;;;;5042545;28;20052;-81
2021/04/23 12:39:11;;;;;;;3.22;1.20;;;;;;;;;;5045524;28;20041;-84
2021/04/23 12:41:39;;;;;;;10.13;1.63;;;;;;;;;;5033044;28;20164;-83
2021/04/23 12:44:08;;;;;;;6.45;1.85;;;;;;;;;;5044352;28;20470;-82
2021/04/23 12:46:37;;;;;;;4.85;1.40;;;;;;;;;;5046147;28;20041;-81
2021/04/23 12:49:06;;;;;;;3.63;1.50;;;;;;;;;;5047803;28;20057;-78
2021/04/23 12:51:36;;;;;;;3.55;1.55;;;;;;;;;;5050748;28;20068;-77
2021/04/23 12:54:04;;;;;;;3.42;1.13;;;;;;;;;;5057909;28;20814;-78
2021/04/23 12:56:31;;;;;;;3.33;1.30;;;;;;;;;;5044596;28;20053;-80
2021/04/23 12:59:00;;;;;;;5.28;1.35;;;;;;;;;;5045909;28;20056;-81
2021/04/23 13:01:27;;;;;;;3.33;1.45;;;;;;;;;;5046197;28;20049;-81
2021/04/23 13:04:07;;;;;;;10.27;1.85;;;;;;;;;;5046661;28;20053;-83
2021/04/23 13:06:33;;;;;;;9.02;1.65;;;;;;;;;;5047139;28;20056;-84
2021/04/23 13:09:11;;;;;;;5.50;1.60;;;;;;;;;;5043040;28;20049;-85
2021/04/23 13:11:40;;;;;;;7.53;2.25;;;;;;;;;;5033317;28;20513;-92
2021/04/23 13:14:14;;;;;;;6.07;2.03;;;;;;;;;;5034538;28;20076;-89
2021/04/23 13:16:43;;;;;;;;;;;;;;;;;;5033002;28;20057;-84
2021/04/23 13:19:10;;;;;;;9.02;2.30;;;;;;;;;;5044106;28;19920;-88
2021/04/23 13:21:37;;;;;;;6.57;2.08;;;;;;;;;;5053175;28;20045;-83
2021/04/23 13:24:18;;;;;;;3.92;1.55;;;;;;;;;;5053023;28;20519;-83
2021/04/23 13:26:45;;;;;;;6.47;1.48;;;;;;;;;;5052233;28;20095;-79
2021/04/23 13:29:12;;;;;;;10.98;1.90;;;;;;;;;;5052353;28;20053;-82
2021/04/23 13:31:38;;;;;;;6.68;2.08;;;;;;;;;;5033993;28;20623;-83
2021/04/23 13:34:08;;;;;;;5.63;1.80;;;;;;;;;;5032652;28;20125;-81
2021/04/23 13:36:35;;;;;;;7.47;1.80;;;;;;;;;;5032264;28;20103;-83
2021/04/23 13:39:07;;;;;;;5.95;2.20;;;;;;;;;;5031854;28;20050;-81
2021/04/23 13:41:39;;;;;;;7.80;2.08;;;;;;;;;;5033130;28;20077;-79
2021/04/23 13:44:07;;;;;;;7.80;2.13;;;;;;;;;;5046975;28;20148;-81
2021/04/23 13:46:37;;;;;;;6.80;2.63;;;;;;;;;;5033213;28;20734;-84
2021/04/23 13:49:12;;;;;;;5.40;1.80;;;;;;;;;;5039351;28;20123;-82
2021/04/23 13:51:44;;;;;;;5.53;1.48;;;;;;;;;;5036476;28;20046;-85
2021/04/23 13:54:20;;;;;;;6.32;1.95;;;;;;;;;;5013265;28;20093;-83
2021/04/23 13:56:48;;;;;;;4.97;1.85;;;;;;;;;;5029291;28;20081;-81
2021/04/23 13:59:16;;;;;;;31.60;2.58;;;;;;;;;;5013690;28;20078;-81
2021/04/23 14:01:49;;;;;;;6.50;1.80;;;;;;;;;;5029056;28;20073;-81
2021/04/23 14:04:18;;;;;;;4.75;1.85;;;;;;;;;;5024667;28;20045;-85
2021/04/23 14:06:45;;;;;;;5.50;1.42;;;;;;;;;;5032577;28;20084;-82
2021/04/23 14:09:19;;;;;;;8.25;2.45;;;;;;;;;;5023608;28;20088;-91
2021/04/23 14:11:58;;;;;;;5.03;1.90;;;;;;;;;;5030496;28;20053;-90
2021/04/23 14:14:30;;;;;;;5.47;1.58;;;;;;;;;;5030653;28;20549;-90
2021/04/23 14:17:10;;;;;;;6.30;1.60;;;;;;;;;;5029641;28;20698;-88
2021/04/23 14:19:40;;;;;;;5.20;2.33;;;;;;;;;;5054800;28;20053;-82
2021/04/23 14:22:07;;;;;;;6.70;1.70;;;;;;;;;;5052691;28;20045;-82
2021/04/23 14:24:46;;;;;;;7.25;1.90;;;;;;;;;;5029739;28;20073;-85
2021/04/23 14:27:15;;;;;;;13.88;2.28;;;;;;;;;;5030873;28;20129;-81
2021/04/23 14:29:42;;;;;;;5.30;2.85;;;;;;;;;;5031698;28;20073;-80
2021/04/23 14:32:08;;;;;;;4.32;1.50;;;;;;;;;;5032864;28;20088;-82
2021/04/23 14:34:35;;;;;;;7.47;2.20;;;;;;;;;;5032948;28;20204;-84
2021/04/23 14:37:02;;;;;;;7.90;1.73;;;;;;;;;;5031920;28;20135;-85
2021/04/23 14:39:33;;;;;;;6.03;1.67;;;;;;;;;;5032235;28;20133;-88
2021/04/23 14:42:00;;;;;;;4.53;1.33;;;;;;;;;;5033357;28;20053;-87
2021/04/23 14:44:30;;;;;;;6.82;1.70;;;;;;;;;;5023647;28;20050;-84
2021/04/23 14:46:57;;;;;;;5.20;2.10;;;;;;;;;;5012022;28;20442;-87
2021/04/23 14:49:32;;;;;;;3.40;1.60;;;;;;;;;;5032442;28;20103;-86
2021/04/23 14:52:15;;;;;;;;;;;;;;;;;;5037286;28;20099;-87